Aérodrome :
LOGIN :

S'inscrire | Disclaimer

   EN    FR    IT 

 










Légende :    VFR   VFR Marginal   IFR   IFR Intensif   IFR Très Intensif
Visi : 
Plafond : 
>= 8 km
>= 3000ft
5 à 8 km
1000 à 3000 ft
1500m à 5 km
500 à 1000 ft
800 à 1500m
200 à 500 ft
< 800m
< 200 ft
Symboles :   Orages  Brouillard  Fortes neiges  Fortes précipitations  Vent > 20 kt
SIGMETs :   Divers  Orages  Givrage  Turbulence  Onde Orograph.  Cendres Volcan.







- Altitude de l'aérodrome : 52 ft
- Code IATA : RNN


EKRN - Bornholm Ronne

DERNIER METAR :
  • 281020Z AUTO 06015KT 9999NDV NCD 18/13 Q1007

METARs EXPIRÉS :
  • 280950Z AUTO 08014KT 9999NDV NCD 18/12 Q1007
  • 280920Z AUTO 08014KT 9999NDV NCD 18/13 Q1007
  • 280850Z AUTO 09012KT 9999NDV FEW003/// 19/13 Q1008
  • 280820Z AUTO 09012KT 9999NDV FEW170/// 18/12 Q1007
  • 280750Z AUTO 09013KT 9999NDV SCT150/// 17/12 Q1008

TAF TAF EKRN
Valide du 28 à 09h jusqu'au 28 à 18h UTC


280825Z 2809/2818 08015KT 9999 FEW020
BECMG 2810/2813 08020G30KT
Pas de NOTAMs connus pour ce terrain.



MET'MAP, la Météo Aéronautique d'un coup d'oeil ! - Copyright ORBIFLY Décembre 2007 - Disclaimer

ORBIFLY MET'MAP TEAM :

Programmation & Développement : Alexandra Zaïnal
Conception & Développement : Baudouin d'Aumeries
Co-Programmation & Développement : Marc-Olivier Méhu
Soutien technique & logistique : Manuel Goepfert

Contact : metmap@orbifly.com




SOURCES & CREDITS :

   NOAA